sensor_id;sensor_type;location;lat;lon;timestamp;P1;durP1;ratioP1;P2;durP2;ratioP2
25824;SDS011;13658;44.534;18.694;2024-01-15T00:00:43;377.85;;;145.40;;
25824;SDS011;13658;44.534;18.694;2024-01-15T00:03:09;356.15;;;139.55;;
25824;SDS011;13658;44.534;18.694;2024-01-15T00:05:35;378.52;;;147.45;;
25824;SDS011;13658;44.534;18.694;2024-01-15T00:08:01;389.73;;;151.35;;
25824;SDS011;13658;44.534;18.694;2024-01-15T00:10:27;360.42;;;142.85;;
25824;SDS011;13658;44.534;18.694;2024-01-15T00:12:53;347.35;;;137.48;;
25824;SDS011;13658;44.534;18.694;2024-01-15T00:15:19;376.63;;;155.18;;
25824;SDS011;13658;44.534;18.694;2024-01-15T00:17:45;359.05;;;141.93;;
25824;SDS011;13658;44.534;18.694;2024-01-15T00:20:11;325.48;;;129.25;;
25824;SDS011;13658;44.534;18.694;2024-01-15T00:22:37;337.95;;;134.35;;
25824;SDS011;13658;44.534;18.694;2024-01-15T00:25:04;345.77;;;135.80;;
25824;SDS011;13658;44.534;18.694;2024-01-15T00:27:30;363.15;;;143.63;;
25824;SDS011;13658;44.534;18.694;2024-01-15T00:29:56;341.48;;;137.95;;
25824;SDS011;13658;44.534;18.694;2024-01-15T00:32:22;332.08;;;134.02;;
25824;SDS011;13658;44.534;18.694;2024-01-15T00:34:48;313.27;;;126.30;;
25824;SDS011;13658;44.534;18.694;2024-01-15T00:37:14;318.85;;;126.78;;
25824;SDS011;13658;44.534;18.694;2024-01-15T00:39:39;350.65;;;131.90;;
25824;SDS011;13658;44.534;18.694;2024-01-15T00:42:05;304.45;;;127.75;;
25824;SDS011;13658;44.534;18.694;2024-01-15T00:44:31;318.17;;;124.20;;
25824;SDS011;13658;44.534;18.694;2024-01-15T00:46:57;274.75;;;111.47;;
25824;SDS011;13658;44.534;18.694;2024-01-15T00:49:23;316.15;;;122.60;;
25824;SDS011;13658;44.534;18.694;2024-01-15T00:51:49;297.13;;;119.80;;
25824;SDS011;13658;44.534;18.694;2024-01-15T00:54:15;308.52;;;122.18;;
25824;SDS011;13658;44.534;18.694;2024-01-15T00:56:41;292.58;;;118.78;;
25824;SDS011;13658;44.534;18.694;2024-01-15T00:59:07;261.33;;;104.65;;
25824;SDS011;13658;44.534;18.694;2024-01-15T01:01:35;239.30;;;99.78;;
25824;SDS011;13658;44.534;18.694;2024-01-15T01:04:03;242.82;;;102.80;;
25824;SDS011;13658;44.534;18.694;2024-01-15T01:06:29;245.23;;;103.50;;
25824;SDS011;13658;44.534;18.694;2024-01-15T01:08:55;249.77;;;105.75;;
25824;SDS011;13658;44.534;18.694;2024-01-15T01:11:21;239.40;;;101.13;;
25824;SDS011;13658;44.534;18.694;2024-01-15T01:13:47;252.27;;;103.45;;
25824;SDS011;13658;44.534;18.694;2024-01-15T01:16:12;230.13;;;97.43;;
25824;SDS011;13658;44.534;18.694;2024-01-15T01:18:38;227.48;;;93.35;;
25824;SDS011;13658;44.534;18.694;2024-01-15T01:21:04;242.68;;;97.30;;
25824;SDS011;13658;44.534;18.694;2024-01-15T01:23:30;235.80;;;97.13;;
25824;SDS011;13658;44.534;18.694;2024-01-15T01:25:56;223.15;;;93.32;;
25824;SDS011;13658;44.534;18.694;2024-01-15T01:28:22;225.55;;;93.38;;
25824;SDS011;13658;44.534;18.694;2024-01-15T01:30:48;214.82;;;89.28;;
25824;SDS011;13658;44.534;18.694;2024-01-15T01:33:13;207.82;;;86.05;;
25824;SDS011;13658;44.534;18.694;2024-01-15T01:35:41;221.80;;;89.65;;
25824;SDS011;13658;44.534;18.694;2024-01-15T01:38:07;220.68;;;90.95;;
25824;SDS011;13658;44.534;18.694;2024-01-15T01:40:33;220.23;;;92.93;;
25824;SDS011;13658;44.534;18.694;2024-01-15T01:42:59;221.73;;;90.90;;
25824;SDS011;13658;44.534;18.694;2024-01-15T01:45:24;214.27;;;85.20;;
25824;SDS011;13658;44.534;18.694;2024-01-15T01:47:50;210.55;;;87.22;;
25824;SDS011;13658;44.534;18.694;2024-01-15T01:50:16;215.82;;;86.95;;
25824;SDS011;13658;44.534;18.694;2024-01-15T01:52:43;205.23;;;84.53;;
25824;SDS011;13658;44.534;18.694;2024-01-15T01:55:09;205.70;;;86.20;;
25824;SDS011;13658;44.534;18.694;2024-01-15T01:57:35;199.18;;;85.57;;
25824;SDS011;13658;44.534;18.694;2024-01-15T02:00:02;182.10;;;75.00;;
25824;SDS011;13658;44.534;18.694;2024-01-15T02:02:36;159.93;;;65.15;;
25824;SDS011;13658;44.534;18.694;2024-01-15T02:05:03;175.43;;;74.32;;
25824;SDS011;13658;44.534;18.694;2024-01-15T02:07:30;171.93;;;70.55;;
25824;SDS011;13658;44.534;18.694;2024-01-15T02:09:57;174.07;;;72.68;;
25824;SDS011;13658;44.534;18.694;2024-01-15T02:12:22;162.77;;;67.70;;
25824;SDS011;13658;44.534;18.694;2024-01-15T02:14:48;170.73;;;67.63;;
25824;SDS011;13658;44.534;18.694;2024-01-15T02:17:14;161.85;;;66.15;;
25824;SDS011;13658;44.534;18.694;2024-01-15T02:19:40;162.27;;;67.45;;
25824;SDS011;13658;44.534;18.694;2024-01-15T02:22:06;156.52;;;68.00;;
25824;SDS011;13658;44.534;18.694;2024-01-15T02:24:32;166.93;;;70.85;;
25824;SDS011;13658;44.534;18.694;2024-01-15T02:26:58;164.50;;;69.95;;
25824;SDS011;13658;44.534;18.694;2024-01-15T02:29:24;164.90;;;70.53;;
25824;SDS011;13658;44.534;18.694;2024-01-15T02:31:50;168.88;;;71.00;;
25824;SDS011;13658;44.534;18.694;2024-01-15T02:34:16;161.68;;;68.47;;
25824;SDS011;13658;44.534;18.694;2024-01-15T02:36:42;167.15;;;70.78;;
25824;SDS011;13658;44.534;18.694;2024-01-15T02:39:08;159.85;;;67.78;;
25824;SDS011;13658;44.534;18.694;2024-01-15T02:41:34;162.05;;;65.65;;
25824;SDS011;13658;44.534;18.694;2024-01-15T02:51:32;142.68;;;58.30;;
25824;SDS011;13658;44.534;18.694;2024-01-15T02:53:58;132.90;;;55.47;;
25824;SDS011;13658;44.534;18.694;2024-01-15T02:56:24;117.95;;;51.67;;
25824;SDS011;13658;44.534;18.694;2024-01-15T02:58:50;122.97;;;53.63;;
25824;SDS011;13658;44.534;18.694;2024-01-15T03:01:18;124.80;;;52.88;;
25824;SDS011;13658;44.534;18.694;2024-01-15T03:03:45;140.63;;;57.50;;
25824;SDS011;13658;44.534;18.694;2024-01-15T03:06:11;127.70;;;55.28;;
25824;SDS011;13658;44.534;18.694;2024-01-15T03:08:37;126.55;;;55.92;;
25824;SDS011;13658;44.534;18.694;2024-01-15T03:11:03;117.10;;;53.80;;
25824;SDS011;13658;44.534;18.694;2024-01-15T03:13:29;131.07;;;56.67;;
25824;SDS011;13658;44.534;18.694;2024-01-15T03:15:55;138.48;;;57.97;;
25824;SDS011;13658;44.534;18.694;2024-01-15T03:18:21;143.30;;;58.10;;
25824;SDS011;13658;44.534;18.694;2024-01-15T03:20:46;132.13;;;56.92;;
25824;SDS011;13658;44.534;18.694;2024-01-15T03:23:12;125.28;;;54.88;;
25824;SDS011;13658;44.534;18.694;2024-01-15T03:25:38;136.48;;;59.95;;
25824;SDS011;13658;44.534;18.694;2024-01-15T03:28:04;135.07;;;55.47;;
25824;SDS011;13658;44.534;18.694;2024-01-15T03:30:30;127.20;;;56.35;;
25824;SDS011;13658;44.534;18.694;2024-01-15T03:32:56;123.18;;;54.53;;
25824;SDS011;13658;44.534;18.694;2024-01-15T03:35:22;118.57;;;51.50;;
25824;SDS011;13658;44.534;18.694;2024-01-15T03:37:48;116.82;;;51.33;;
25824;SDS011;13658;44.534;18.694;2024-01-15T03:40:14;126.15;;;52.53;;
25824;SDS011;13658;44.534;18.694;2024-01-15T03:42:40;147.43;;;60.72;;
25824;SDS011;13658;44.534;18.694;2024-01-15T03:45:06;168.48;;;71.30;;
25824;SDS011;13658;44.534;18.694;2024-01-15T03:47:32;122.70;;;53.90;;
25824;SDS011;13658;44.534;18.694;2024-01-15T03:49:58;117.32;;;51.45;;
25824;SDS011;13658;44.534;18.694;2024-01-15T03:52:24;115.78;;;48.45;;
25824;SDS011;13658;44.534;18.694;2024-01-15T03:54:49;105.22;;;47.88;;
25824;SDS011;13658;44.534;18.694;2024-01-15T03:57:15;117.15;;;48.47;;
25824;SDS011;13658;44.534;18.694;2024-01-15T03:59:41;112.68;;;51.50;;
25824;SDS011;13658;44.534;18.694;2024-01-15T04:02:07;122.72;;;55.03;;
25824;SDS011;13658;44.534;18.694;2024-01-15T04:04:33;113.95;;;51.63;;
25824;SDS011;13658;44.534;18.694;2024-01-15T04:06:59;130.02;;;57.33;;
25824;SDS011;13658;44.534;18.694;2024-01-15T04:09:25;128.68;;;56.80;;
25824;SDS011;13658;44.534;18.694;2024-01-15T04:11:51;107.50;;;49.92;;
25824;SDS011;13658;44.534;18.694;2024-01-15T04:14:17;108.90;;;46.78;;
25824;SDS011;13658;44.534;18.694;2024-01-15T04:16:43;101.85;;;46.90;;
25824;SDS011;13658;44.534;18.694;2024-01-15T04:19:09;111.95;;;49.15;;
25824;SDS011;13658;44.534;18.694;2024-01-15T04:21:35;115.40;;;50.97;;
25824;SDS011;13658;44.534;18.694;2024-01-15T04:24:00;109.55;;;49.10;;
25824;SDS011;13658;44.534;18.694;2024-01-15T04:26:26;111.30;;;52.22;;
25824;SDS011;13658;44.534;18.694;2024-01-15T04:28:52;111.15;;;49.83;;
25824;SDS011;13658;44.534;18.694;2024-01-15T04:31:25;124.18;;;55.22;;
25824;SDS011;13658;44.534;18.694;2024-01-15T04:33:54;112.90;;;50.95;;
25824;SDS011;13658;44.534;18.694;2024-01-15T04:36:21;123.88;;;53.53;;
25824;SDS011;13658;44.534;18.694;2024-01-15T04:38:47;124.68;;;54.75;;
25824;SDS011;13658;44.534;18.694;2024-01-15T04:41:14;115.85;;;48.42;;
25824;SDS011;13658;44.534;18.694;2024-01-15T04:43:41;110.40;;;48.85;;
25824;SDS011;13658;44.534;18.694;2024-01-15T04:46:07;108.10;;;48.70;;
25824;SDS011;13658;44.534;18.694;2024-01-15T04:48:33;111.30;;;50.35;;
25824;SDS011;13658;44.534;18.694;2024-01-15T04:50:59;117.25;;;50.30;;
25824;SDS011;13658;44.534;18.694;2024-01-15T04:53:26;134.70;;;57.47;;
25824;SDS011;13658;44.534;18.694;2024-01-15T04:55:52;133.27;;;58.08;;
25824;SDS011;13658;44.534;18.694;2024-01-15T04:58:18;138.68;;;58.63;;
25824;SDS011;13658;44.534;18.694;2024-01-15T05:00:44;123.60;;;53.75;;
25824;SDS011;13658;44.534;18.694;2024-01-15T05:03:10;130.00;;;57.13;;
25824;SDS011;13658;44.534;18.694;2024-01-15T05:05:36;141.52;;;61.42;;
25824;SDS011;13658;44.534;18.694;2024-01-15T05:08:02;137.73;;;58.05;;
25824;SDS011;13658;44.534;18.694;2024-01-15T05:10:28;136.80;;;58.88;;
25824;SDS011;13658;44.534;18.694;2024-01-15T05:12:54;134.90;;;57.45;;
25824;SDS011;13658;44.534;18.694;2024-01-15T05:15:20;130.48;;;54.08;;
25824;SDS011;13658;44.534;18.694;2024-01-15T05:17:46;115.78;;;53.08;;
25824;SDS011;13658;44.534;18.694;2024-01-15T05:20:12;117.35;;;51.70;;
25824;SDS011;13658;44.534;18.694;2024-01-15T05:22:38;114.50;;;52.17;;
25824;SDS011;13658;44.534;18.694;2024-01-15T05:25:04;110.18;;;49.55;;
25824;SDS011;13658;44.534;18.694;2024-01-15T05:27:31;137.90;;;60.17;;
25824;SDS011;13658;44.534;18.694;2024-01-15T05:29:56;137.18;;;57.13;;
25824;SDS011;13658;44.534;18.694;2024-01-15T05:32:23;134.90;;;60.97;;
25824;SDS011;13658;44.534;18.694;2024-01-15T05:34:49;131.50;;;61.38;;
25824;SDS011;13658;44.534;18.694;2024-01-15T05:37:15;123.38;;;56.72;;
25824;SDS011;13658;44.534;18.694;2024-01-15T05:39:42;111.40;;;54.95;;
25824;SDS011;13658;44.534;18.694;2024-01-15T05:42:08;118.25;;;54.67;;
25824;SDS011;13658;44.534;18.694;2024-01-15T05:44:34;120.30;;;56.40;;
25824;SDS011;13658;44.534;18.694;2024-01-15T05:47:00;117.25;;;52.83;;
25824;SDS011;13658;44.534;18.694;2024-01-15T05:49:26;121.15;;;53.50;;
25824;SDS011;13658;44.534;18.694;2024-01-15T05:51:52;121.10;;;53.45;;
25824;SDS011;13658;44.534;18.694;2024-01-15T05:54:18;130.63;;;58.47;;
25824;SDS011;13658;44.534;18.694;2024-01-15T05:56:45;130.90;;;55.40;;
25824;SDS011;13658;44.534;18.694;2024-01-15T05:59:11;120.43;;;55.35;;
25824;SDS011;13658;44.534;18.694;2024-01-15T06:01:37;108.95;;;51.03;;
25824;SDS011;13658;44.534;18.694;2024-01-15T06:04:03;142.23;;;59.58;;
25824;SDS011;13658;44.534;18.694;2024-01-15T06:06:29;117.03;;;53.28;;
25824;SDS011;13658;44.534;18.694;2024-01-15T06:08:56;151.35;;;60.40;;
25824;SDS011;13658;44.534;18.694;2024-01-15T06:11:29;151.77;;;62.30;;
25824;SDS011;13658;44.534;18.694;2024-01-15T06:13:55;132.55;;;57.45;;
25824;SDS011;13658;44.534;18.694;2024-01-15T06:16:21;157.02;;;60.95;;
25824;SDS011;13658;44.534;18.694;2024-01-15T06:18:48;217.13;;;80.68;;
25824;SDS011;13658;44.534;18.694;2024-01-15T06:21:14;238.05;;;89.78;;
25824;SDS011;13658;44.534;18.694;2024-01-15T06:23:41;189.88;;;77.10;;
25824;SDS011;13658;44.534;18.694;2024-01-15T06:26:07;180.43;;;73.43;;
25824;SDS011;13658;44.534;18.694;2024-01-15T06:28:33;179.13;;;72.35;;
25824;SDS011;13658;44.534;18.694;2024-01-15T06:30:59;195.18;;;80.47;;
25824;SDS011;13658;44.534;18.694;2024-01-15T06:33:28;208.20;;;82.47;;
25824;SDS011;13658;44.534;18.694;2024-01-15T06:35:54;198.38;;;79.47;;
25824;SDS011;13658;44.534;18.694;2024-01-15T06:38:21;186.57;;;79.25;;
25824;SDS011;13658;44.534;18.694;2024-01-15T06:40:48;194.32;;;81.63;;
25824;SDS011;13658;44.534;18.694;2024-01-15T06:43:15;204.50;;;86.20;;
25824;SDS011;13658;44.534;18.694;2024-01-15T06:45:41;204.95;;;86.40;;
25824;SDS011;13658;44.534;18.694;2024-01-15T06:48:07;185.70;;;76.15;;
25824;SDS011;13658;44.534;18.694;2024-01-15T06:50:33;190.07;;;80.30;;
25824;SDS011;13658;44.534;18.694;2024-01-15T06:52:59;179.77;;;78.97;;
25824;SDS011;13658;44.534;18.694;2024-01-15T06:55:25;178.00;;;76.18;;
25824;SDS011;13658;44.534;18.694;2024-01-15T06:57:51;165.52;;;70.05;;
25824;SDS011;13658;44.534;18.694;2024-01-15T07:00:17;175.93;;;73.38;;
25824;SDS011;13658;44.534;18.694;2024-01-15T07:02:45;176.65;;;77.22;;
25824;SDS011;13658;44.534;18.694;2024-01-15T07:05:11;170.80;;;79.55;;
25824;SDS011;13658;44.534;18.694;2024-01-15T07:07:37;187.23;;;86.43;;
25824;SDS011;13658;44.534;18.694;2024-01-15T07:10:03;194.02;;;93.05;;
25824;SDS011;13658;44.534;18.694;2024-01-15T07:12:30;203.05;;;91.38;;
25824;SDS011;13658;44.534;18.694;2024-01-15T07:14:56;233.98;;;103.68;;
25824;SDS011;13658;44.534;18.694;2024-01-15T07:17:22;236.18;;;105.97;;
25824;SDS011;13658;44.534;18.694;2024-01-15T07:19:48;223.75;;;101.75;;
25824;SDS011;13658;44.534;18.694;2024-01-15T07:22:14;217.63;;;98.32;;
25824;SDS011;13658;44.534;18.694;2024-01-15T07:24:43;262.35;;;119.93;;
25824;SDS011;13658;44.534;18.694;2024-01-15T07:27:10;266.88;;;123.10;;
25824;SDS011;13658;44.534;18.694;2024-01-15T07:29:37;283.25;;;128.50;;
25824;SDS011;13658;44.534;18.694;2024-01-15T07:32:03;259.90;;;122.05;;
25824;SDS011;13658;44.534;18.694;2024-01-15T07:34:29;247.13;;;112.35;;
25824;SDS011;13658;44.534;18.694;2024-01-15T07:36:56;282.80;;;133.68;;
25824;SDS011;13658;44.534;18.694;2024-01-15T07:39:22;245.80;;;117.85;;
25824;SDS011;13658;44.534;18.694;2024-01-15T07:41:50;138.43;;;65.60;;
25824;SDS011;13658;44.534;18.694;2024-01-15T07:44:16;128.60;;;60.80;;
25824;SDS011;13658;44.534;18.694;2024-01-15T07:46:45;223.80;;;109.82;;
25824;SDS011;13658;44.534;18.694;2024-01-15T07:49:12;237.77;;;117.85;;
25824;SDS011;13658;44.534;18.694;2024-01-15T07:51:38;243.80;;;120.32;;
25824;SDS011;13658;44.534;18.694;2024-01-15T07:54:06;240.98;;;119.43;;
25824;SDS011;13658;44.534;18.694;2024-01-15T07:56:32;252.35;;;126.82;;
25824;SDS011;13658;44.534;18.694;2024-01-15T07:58:58;255.45;;;127.45;;
25824;SDS011;13658;44.534;18.694;2024-01-15T08:01:24;264.48;;;132.75;;
25824;SDS011;13658;44.534;18.694;2024-01-15T08:03:50;261.52;;;129.25;;
25824;SDS011;13658;44.534;18.694;2024-01-15T08:06:17;259.42;;;129.13;;
25824;SDS011;13658;44.534;18.694;2024-01-15T08:08:43;352.40;;;172.65;;
25824;SDS011;13658;44.534;18.694;2024-01-15T08:11:09;234.57;;;117.85;;
25824;SDS011;13658;44.534;18.694;2024-01-15T08:13:35;217.52;;;109.78;;
25824;SDS011;13658;44.534;18.694;2024-01-15T08:16:01;197.95;;;99.63;;
25824;SDS011;13658;44.534;18.694;2024-01-15T08:18:28;215.88;;;110.68;;
25824;SDS011;13658;44.534;18.694;2024-01-15T08:20:54;263.00;;;129.98;;
25824;SDS011;13658;44.534;18.694;2024-01-15T08:23:20;238.65;;;118.40;;
25824;SDS011;13658;44.534;18.694;2024-01-15T08:25:46;228.95;;;117.68;;
25824;SDS011;13658;44.534;18.694;2024-01-15T08:28:12;225.15;;;114.60;;
25824;SDS011;13658;44.534;18.694;2024-01-15T08:30:38;230.77;;;118.63;;
25824;SDS011;13658;44.534;18.694;2024-01-15T08:33:04;253.93;;;130.05;;
25824;SDS011;13658;44.534;18.694;2024-01-15T08:35:30;249.35;;;128.40;;
25824;SDS011;13658;44.534;18.694;2024-01-15T08:43:26;188.32;;;96.50;;
25824;SDS011;13658;44.534;18.694;2024-01-15T08:45:52;261.33;;;132.05;;
25824;SDS011;13658;44.534;18.694;2024-01-15T08:48:18;263.35;;;130.38;;
25824;SDS011;13658;44.534;18.694;2024-01-15T08:50:44;251.13;;;128.05;;
25824;SDS011;13658;44.534;18.694;2024-01-15T08:53:13;245.32;;;126.95;;
25824;SDS011;13658;44.534;18.694;2024-01-15T08:55:40;246.45;;;127.32;;
25824;SDS011;13658;44.534;18.694;2024-01-15T08:58:09;265.30;;;136.45;;
25824;SDS011;13658;44.534;18.694;2024-01-15T09:00:35;268.42;;;137.32;;
25824;SDS011;13658;44.534;18.694;2024-01-15T09:03:01;279.80;;;144.70;;
25824;SDS011;13658;44.534;18.694;2024-01-15T09:05:28;293.33;;;146.38;;
25824;SDS011;13658;44.534;18.694;2024-01-15T09:07:54;282.55;;;146.30;;
25824;SDS011;13658;44.534;18.694;2024-01-15T09:10:21;285.50;;;148.45;;
25824;SDS011;13658;44.534;18.694;2024-01-15T09:12:47;309.33;;;157.50;;
25824;SDS011;13658;44.534;18.694;2024-01-15T09:15:14;288.42;;;149.13;;
25824;SDS011;13658;44.534;18.694;2024-01-15T09:17:40;273.98;;;140.23;;
25824;SDS011;13658;44.534;18.694;2024-01-15T09:20:06;305.08;;;156.35;;
25824;SDS011;13658;44.534;18.694;2024-01-15T09:22:33;297.80;;;152.25;;
25824;SDS011;13658;44.534;18.694;2024-01-15T09:24:59;287.70;;;156.82;;
25824;SDS011;13658;44.534;18.694;2024-01-15T09:27:25;289.95;;;153.68;;
25824;SDS011;13658;44.534;18.694;2024-01-15T09:29:54;293.52;;;154.20;;
25824;SDS011;13658;44.534;18.694;2024-01-15T09:32:19;292.75;;;157.32;;
25824;SDS011;13658;44.534;18.694;2024-01-15T09:34:45;256.90;;;141.65;;
25824;SDS011;13658;44.534;18.694;2024-01-15T09:37:12;260.17;;;139.38;;
25824;SDS011;13658;44.534;18.694;2024-01-15T09:39:39;275.95;;;147.30;;
25824;SDS011;13658;44.534;18.694;2024-01-15T09:42:05;227.60;;;127.68;;
25824;SDS011;13658;44.534;18.694;2024-01-15T09:44:32;276.52;;;150.30;;
25824;SDS011;13658;44.534;18.694;2024-01-15T09:46:58;276.88;;;142.57;;
25824;SDS011;13658;44.534;18.694;2024-01-15T09:49:24;278.60;;;157.35;;
25824;SDS011;13658;44.534;18.694;2024-01-15T09:51:50;298.58;;;162.35;;
25824;SDS011;13658;44.534;18.694;2024-01-15T09:54:17;295.67;;;156.77;;
25824;SDS011;13658;44.534;18.694;2024-01-15T09:56:46;307.48;;;169.57;;
25824;SDS011;13658;44.534;18.694;2024-01-15T09:59:15;283.30;;;154.32;;
25824;SDS011;13658;44.534;18.694;2024-01-15T10:01:43;278.35;;;154.85;;
25824;SDS011;13658;44.534;18.694;2024-01-15T10:04:10;216.05;;;122.60;;
25824;SDS011;13658;44.534;18.694;2024-01-15T10:06:38;212.93;;;116.95;;
25824;SDS011;13658;44.534;18.694;2024-01-15T10:09:04;217.38;;;120.78;;
25824;SDS011;13658;44.534;18.694;2024-01-15T10:11:33;208.55;;;118.22;;
25824;SDS011;13658;44.534;18.694;2024-01-15T10:14:00;244.10;;;133.93;;
25824;SDS011;13658;44.534;18.694;2024-01-15T10:16:26;249.85;;;136.75;;
25824;SDS011;13658;44.534;18.694;2024-01-15T10:18:53;256.52;;;144.90;;
25824;SDS011;13658;44.534;18.694;2024-01-15T10:21:20;275.75;;;152.05;;
25824;SDS011;13658;44.534;18.694;2024-01-15T10:23:48;284.58;;;155.75;;
25824;SDS011;13658;44.534;18.694;2024-01-15T10:26:14;289.20;;;162.50;;
25824;SDS011;13658;44.534;18.694;2024-01-15T10:28:40;290.13;;;161.90;;
25824;SDS011;13658;44.534;18.694;2024-01-15T10:31:07;297.48;;;169.50;;
25824;SDS011;13658;44.534;18.694;2024-01-15T10:33:35;305.40;;;174.57;;
25824;SDS011;13658;44.534;18.694;2024-01-15T10:36:02;288.00;;;160.30;;
25824;SDS011;13658;44.534;18.694;2024-01-15T10:38:35;299.77;;;164.55;;
25824;SDS011;13658;44.534;18.694;2024-01-15T10:41:02;297.83;;;172.65;;
25824;SDS011;13658;44.534;18.694;2024-01-15T10:43:28;324.23;;;188.48;;
25824;SDS011;13658;44.534;18.694;2024-01-15T10:45:54;326.60;;;186.60;;
25824;SDS011;13658;44.534;18.694;2024-01-15T10:48:20;324.10;;;183.98;;
25824;SDS011;13658;44.534;18.694;2024-01-15T10:50:47;316.67;;;181.02;;
25824;SDS011;13658;44.534;18.694;2024-01-15T10:53:14;321.98;;;176.85;;
25824;SDS011;13658;44.534;18.694;2024-01-15T10:55:41;330.35;;;183.82;;
25824;SDS011;13658;44.534;18.694;2024-01-15T10:58:09;316.10;;;172.13;;
25824;SDS011;13658;44.534;18.694;2024-01-15T11:00:35;313.35;;;174.48;;
25824;SDS011;13658;44.534;18.694;2024-01-15T11:03:05;317.88;;;171.30;;
25824;SDS011;13658;44.534;18.694;2024-01-15T11:05:38;287.48;;;153.80;;
25824;SDS011;13658;44.534;18.694;2024-01-15T11:08:07;310.75;;;176.90;;
25824;SDS011;13658;44.534;18.694;2024-01-15T11:10:40;290.98;;;160.40;;
25824;SDS011;13658;44.534;18.694;2024-01-15T11:13:19;301.02;;;163.75;;
25824;SDS011;13658;44.534;18.694;2024-01-15T11:15:58;316.27;;;175.35;;
25824;SDS011;13658;44.534;18.694;2024-01-15T11:18:27;326.45;;;182.50;;
25824;SDS011;13658;44.534;18.694;2024-01-15T11:23:50;367.02;;;209.13;;
25824;SDS011;13658;44.534;18.694;2024-01-15T11:26:31;362.10;;;208.45;;
25824;SDS011;13658;44.534;18.694;2024-01-15T11:29:03;382.95;;;223.25;;
25824;SDS011;13658;44.534;18.694;2024-01-15T11:37:19;375.88;;;210.48;;
25824;SDS011;13658;44.534;18.694;2024-01-15T11:39:46;383.15;;;222.10;;
25824;SDS011;13658;44.534;18.694;2024-01-15T11:42:12;414.60;;;237.55;;
25824;SDS011;13658;44.534;18.694;2024-01-15T11:44:39;350.38;;;202.63;;
25824;SDS011;13658;44.534;18.694;2024-01-15T11:52:35;348.45;;;208.10;;
25824;SDS011;13658;44.534;18.694;2024-01-15T11:55:10;368.70;;;216.32;;
25824;SDS011;13658;44.534;18.694;2024-01-15T12:00:07;374.83;;;215.90;;
25824;SDS011;13658;44.534;18.694;2024-01-15T12:02:41;386.77;;;218.90;;
25824;SDS011;13658;44.534;18.694;2024-01-15T12:05:09;375.77;;;221.38;;
25824;SDS011;13658;44.534;18.694;2024-01-15T12:07:38;349.55;;;200.18;;
25824;SDS011;13658;44.534;18.694;2024-01-15T12:10:08;341.17;;;198.18;;
25824;SDS011;13658;44.534;18.694;2024-01-15T12:15:15;281.50;;;157.90;;
25824;SDS011;13658;44.534;18.694;2024-01-15T12:17:41;278.17;;;159.25;;
25824;SDS011;13658;44.534;18.694;2024-01-15T12:20:07;283.08;;;163.48;;
25824;SDS011;13658;44.534;18.694;2024-01-15T12:22:34;286.35;;;167.27;;
25824;SDS011;13658;44.534;18.694;2024-01-15T12:25:01;299.83;;;176.18;;
25824;SDS011;13658;44.534;18.694;2024-01-15T12:27:27;310.77;;;184.85;;
25824;SDS011;13658;44.534;18.694;2024-01-15T12:29:53;309.35;;;184.13;;
25824;SDS011;13658;44.534;18.694;2024-01-15T12:32:19;309.02;;;187.55;;
25824;SDS011;13658;44.534;18.694;2024-01-15T12:34:46;326.08;;;201.52;;
25824;SDS011;13658;44.534;18.694;2024-01-15T12:37:15;330.33;;;197.60;;
25824;SDS011;13658;44.534;18.694;2024-01-15T12:39:43;324.35;;;197.20;;
25824;SDS011;13658;44.534;18.694;2024-01-15T12:42:09;317.65;;;193.05;;
25824;SDS011;13658;44.534;18.694;2024-01-15T12:44:36;317.45;;;194.63;;
25824;SDS011;13658;44.534;18.694;2024-01-15T12:47:04;362.85;;;223.60;;
25824;SDS011;13658;44.534;18.694;2024-01-15T12:49:31;378.25;;;234.32;;
25824;SDS011;13658;44.534;18.694;2024-01-15T12:51:57;354.00;;;214.65;;
25824;SDS011;13658;44.534;18.694;2024-01-15T12:54:25;321.77;;;203.35;;
25824;SDS011;13658;44.534;18.694;2024-01-15T12:56:51;323.88;;;200.27;;
25824;SDS011;13658;44.534;18.694;2024-01-15T12:59:18;320.67;;;190.68;;
25824;SDS011;13658;44.534;18.694;2024-01-15T13:01:44;318.67;;;186.93;;
25824;SDS011;13658;44.534;18.694;2024-01-15T13:04:11;324.27;;;187.80;;
25824;SDS011;13658;44.534;18.694;2024-01-15T13:06:49;318.63;;;193.13;;
25824;SDS011;13658;44.534;18.694;2024-01-15T13:09:15;312.73;;;191.02;;
25824;SDS011;13658;44.534;18.694;2024-01-15T13:11:42;327.42;;;203.60;;
25824;SDS011;13658;44.534;18.694;2024-01-15T13:14:12;352.77;;;218.27;;
25824;SDS011;13658;44.534;18.694;2024-01-15T13:16:41;428.98;;;260.17;;
25824;SDS011;13658;44.534;18.694;2024-01-15T13:19:08;389.63;;;239.45;;
25824;SDS011;13658;44.534;18.694;2024-01-15T13:21:40;377.58;;;232.82;;
25824;SDS011;13658;44.534;18.694;2024-01-15T13:24:06;354.73;;;217.18;;
25824;SDS011;13658;44.534;18.694;2024-01-15T13:26:35;352.02;;;211.70;;
25824;SDS011;13658;44.534;18.694;2024-01-15T13:29:05;365.25;;;227.50;;
25824;SDS011;13658;44.534;18.694;2024-01-15T13:31:32;395.63;;;243.48;;
25824;SDS011;13658;44.534;18.694;2024-01-15T13:33:58;400.52;;;251.40;;
25824;SDS011;13658;44.534;18.694;2024-01-15T13:36:28;320.50;;;201.32;;
25824;SDS011;13658;44.534;18.694;2024-01-15T13:38:53;384.58;;;235.32;;
25824;SDS011;13658;44.534;18.694;2024-01-15T13:41:20;455.23;;;272.58;;
25824;SDS011;13658;44.534;18.694;2024-01-15T13:43:53;443.52;;;269.88;;
25824;SDS011;13658;44.534;18.694;2024-01-15T13:46:20;466.70;;;279.25;;
25824;SDS011;13658;44.534;18.694;2024-01-15T13:48:48;426.55;;;258.08;;
25824;SDS011;13658;44.534;18.694;2024-01-15T13:51:14;468.95;;;281.25;;
25824;SDS011;13658;44.534;18.694;2024-01-15T13:53:40;448.23;;;271.90;;
25824;SDS011;13658;44.534;18.694;2024-01-15T13:56:06;449.80;;;277.42;;
25824;SDS011;13658;44.534;18.694;2024-01-15T13:58:35;431.90;;;267.70;;
25824;SDS011;13658;44.534;18.694;2024-01-15T14:01:01;445.33;;;268.33;;
25824;SDS011;13658;44.534;18.694;2024-01-15T14:03:29;446.13;;;267.30;;
25824;SDS011;13658;44.534;18.694;2024-01-15T14:05:55;448.95;;;272.55;;
25824;SDS011;13658;44.534;18.694;2024-01-15T14:08:21;438.27;;;269.02;;
25824;SDS011;13658;44.534;18.694;2024-01-15T14:10:47;442.77;;;277.00;;
25824;SDS011;13658;44.534;18.694;2024-01-15T14:13:13;450.23;;;280.15;;
25824;SDS011;13658;44.534;18.694;2024-01-15T14:15:39;417.17;;;257.48;;
25824;SDS011;13658;44.534;18.694;2024-01-15T14:18:05;412.42;;;255.90;;